Time;durP1;ratioP1;P1;durP2;ratioP2;P2;SDS_P1;SDS_P2;PMS_P1;PMS_P2;Temp;Humidity;BMP_temperature;BMP_pressure;BME280_temperature;BME280_humidity;BME280_pressure;Samples;Min_cycle;Max_cycle;Signal;HPM_P1;HPM_P2
2021/01/17 00:00:15;;;;;;;50.67;22.05;;;;;;;-17.41;57.99;100076.84;1784587;80;21252;-63
2021/01/17 00:02:44;;;;;;;53.67;21.90;;;;;;;-17.32;58.12;100071.61;1784722;80;21667;-64
2021/01/17 00:05:16;;;;;;;49.43;21.00;;;;;;;-17.35;57.77;100076.91;1747747;82;21787;-63
2021/01/17 00:07:44;;;;;;;50.03;20.70;;;;;;;-17.44;57.73;100075.38;1744556;82;21860;-63
2021/01/17 00:10:19;;;;;;;49.77;19.60;;;;;;;-17.50;57.88;100077.08;1723791;83;21217;-62
2021/01/17 00:12:49;;;;;;;44.93;18.67;;;;;;;-17.53;57.84;100072.19;1723530;83;21174;-64
2021/01/17 00:15:17;;;;;;;47.95;18.90;;;;;;;-17.64;57.65;100077.69;1724011;83;22290;-62
2021/01/17 00:17:45;;;;;;;47.90;18.40;;;;;;;-17.79;57.67;100073.28;1723756;82;21232;-64
2021/01/17 00:20:16;;;;;;;49.03;18.73;;;;;;;-17.89;57.88;100076.32;1724035;83;21153;-63
2021/01/17 00:22:44;;;;;;;49.03;18.47;;;;;;;-17.91;58.14;100081.61;1723673;82;21220;-63
2021/01/17 00:25:17;;;;;;;44.73;18.00;;;;;;;-17.96;58.21;100078.75;1723506;83;21244;-62
2021/01/17 00:27:49;;;;;;;46.43;19.07;;;;;;;-17.90;58.82;100075.81;1730279;82;22164;-63
2021/01/17 00:30:21;;;;;;;42.90;17.57;;;;;;;-17.75;59.07;100078.17;1732994;82;21286;-62
2021/01/17 00:32:59;;;;;;;46.33;18.53;;;;;;;-17.55;59.04;100081.77;1887341;76;26696;-63
2021/01/17 00:35:34;;;;;;;51.17;17.17;;;;;;;-17.51;58.65;100080.73;1858499;77;21095;-62
2021/01/17 00:38:21;;;;;;;48.40;16.97;;;;;;;-17.52;58.28;100078.99;1858412;77;21522;-61
2021/01/17 00:40:49;;;;;;;54.13;19.57;;;;;;;-17.50;58.34;100074.92;1788112;78;21714;-62
2021/01/17 00:43:18;;;;;;;59.17;22.23;;;;;;;-17.36;58.57;100074.30;1788294;80;21166;-61
2021/01/17 00:45:46;;;;;;;51.57;18.90;;;;;;;-17.23;58.36;100079.43;1753242;81;21197;-61
2021/01/17 00:48:14;;;;;;;51.03;17.80;;;;;;;-17.20;57.91;100078.41;1779931;80;21161;-61
2021/01/17 00:50:43;;;;;;;50.67;18.33;;;;;;;-17.24;57.50;100081.47;1778062;80;21196;-63
2021/01/17 00:53:11;;;;;;;63.40;24.47;;;;;;;-17.32;57.25;100083.80;1778010;80;21208;-63
2021/01/17 00:55:41;;;;;;;63.47;24.67;;;;;;;-17.37;57.44;100083.47;1773709;80;21162;-61
2021/01/17 00:58:12;;;;;;;60.50;23.87;;;;;;;-17.30;57.85;100086.05;1765557;80;21210;-63
2021/01/17 01:02:57;;;;;;;74.90;27.30;;;;;;;-16.89;58.70;100091.91;1773457;79;26959;-63
2021/01/17 01:05:26;;;;;;;70.40;29.50;;;;;;;-16.87;58.92;100087.87;1654375;85;21665;-62
2021/01/17 01:07:54;;;;;;;79.93;33.07;;;;;;;-16.80;58.65;100087.52;1650660;85;21207;-62
2021/01/17 01:10:25;;;;;;;65.40;29.20;;;;;;;-16.76;58.41;100085.69;1650740;86;21238;-61
2021/01/17 01:12:54;;;;;;;66.28;27.82;;;;;;;-16.78;58.43;100084.70;1650828;85;21243;-62
2021/01/17 01:15:22;;;;;;;63.45;27.17;;;;;;;-16.87;58.73;100084.48;1651107;86;21206;-62
2021/01/17 01:17:51;;;;;;;58.33;25.90;;;;;;;-17.01;58.75;100091.05;1650834;86;21262;-62
2021/01/17 01:20:19;;;;;;;55.10;21.43;;;;;;;-17.27;58.61;100093.84;1650987;86;21240;-62
2021/01/17 01:22:47;;;;;;;69.97;26.53;;;;;;;-17.52;58.86;100088.67;1650828;86;21202;-62
2021/01/17 01:25:16;;;;;;;48.03;19.20;;;;;;;-17.75;59.22;100089.50;1650934;86;21225;-62
2021/01/17 01:27:47;;;;;;;50.80;18.77;;;;;;;-18.01;59.27;100098.53;1650775;86;21218;-61
2021/01/17 01:30:17;;;;;;;52.77;20.70;;;;;;;-18.29;59.57;100101.83;1650902;86;21253;-61
2021/01/17 01:32:50;;;;;;;;;;;;;;;-18.54;60.19;100085.25;1653319;86;21279;-61
2021/01/17 01:35:19;;;;;;;58.00;20.40;;;;;;;-18.74;60.80;100086.25;1650974;86;20554;-62
2021/01/17 01:37:47;;;;;;;64.47;20.30;;;;;;;-18.96;61.52;100084.97;1650644;86;21222;-61
2021/01/17 01:40:16;;;;;;;58.65;19.90;;;;;;;-19.11;61.90;100085.05;1650926;86;21154;-61
2021/01/17 01:42:44;;;;;;;47.00;17.77;;;;;;;-19.29;62.35;100085.33;1650734;86;21159;-61
2021/01/17 01:45:13;;;;;;;43.90;17.67;;;;;;;-19.41;62.64;100088.13;1651183;86;22124;-61
2021/01/17 01:47:41;;;;;;;39.97;14.07;;;;;;;-19.54;62.60;100082.86;1650660;86;21226;-60
2021/01/17 01:50:12;;;;;;;32.80;12.63;;;;;;;-19.72;62.42;100085.66;1651042;86;21207;-62
2021/01/17 01:52:41;;;;;;;47.08;18.40;;;;;;;-19.95;62.59;100090.05;1650895;86;21230;-62
2021/01/17 01:55:11;;;;;;;62.93;21.83;;;;;;;-20.17;63.14;100086.16;1650800;86;21638;-63
2021/01/17 01:57:39;;;;;;;60.70;19.30;;;;;;;-20.29;63.56;100089.27;1676375;85;21571;-62
2021/01/17 02:00:09;;;;;;;53.78;18.35;;;;;;;-20.39;63.83;100078.86;1678382;85;21213;-60
2021/01/17 02:02:47;;;;;;;61.90;21.63;;;;;;;-20.47;64.15;100074.82;1668775;85;21219;-62
2021/01/17 02:05:16;;;;;;;54.37;20.03;;;;;;;-20.50;64.55;100082.09;1666004;86;21210;-63
2021/01/17 02:08:07;;;;;;;55.83;19.47;;;;;;;-20.54;64.71;100084.34;1665988;86;21206;-62
2021/01/17 02:10:43;;;;;;;58.33;19.90;;;;;;;-20.49;65.10;100097.25;1845604;76;24116;-63
2021/01/17 02:13:34;;;;;;;58.87;18.67;;;;;;;-20.60;65.16;100098.88;1815597;79;21171;-62
2021/01/17 02:16:03;;;;;;;55.80;19.37;;;;;;;-20.67;65.29;100095.73;1790032;79;21203;-63
2021/01/17 02:18:39;;;;;;;49.07;19.57;;;;;;;-20.70;65.44;100100.11;1783260;79;21166;-62
2021/01/17 02:21:08;;;;;;;49.77;18.70;;;;;;;-20.72;65.46;100102.84;1783398;80;21194;-62
2021/01/17 02:23:45;;;;;;;44.63;17.23;;;;;;;-20.76;65.55;100103.33;1781314;80;21194;-62
2021/01/17 02:26:14;;;;;;;46.80;17.33;;;;;;;-20.82;65.66;100104.05;1780119;80;21193;-62
2021/01/17 02:28:42;;;;;;;46.03;18.13;;;;;;;-20.86;65.79;100112.03;1779628;79;21144;-63
2021/01/17 02:31:11;;;;;;;57.78;18.90;;;;;;;-20.91;65.72;100114.52;1749882;80;21179;-62
2021/01/17 02:33:41;;;;;;;50.63;19.47;;;;;;;-20.98;65.76;100105.25;1749614;80;21422;-64
2021/01/17 02:36:41;;;;;;;60.23;20.10;;;;;;;-21.00;65.87;100100.48;1750026;80;21183;-62
2021/01/17 02:39:23;;;;;;;52.33;20.00;;;;;;;-20.98;66.12;100098.09;1779748;79;21230;-61
2021/01/17 02:42:01;;;;;;;61.37;20.83;;;;;;;-21.01;66.17;100100.34;1780969;80;21469;-62
2021/01/17 02:44:32;;;;;;;47.43;18.93;;;;;;;-21.12;65.94;100103.16;1781407;80;21172;-62
2021/01/17 02:47:02;;;;;;;51.83;18.93;;;;;;;-21.22;65.97;100098.11;1781374;80;21179;-62
2021/01/17 02:49:31;;;;;;;45.63;18.47;;;;;;;-21.23;66.09;100092.58;1783171;80;21625;-63
2021/01/17 02:52:03;;;;;;;40.80;16.77;;;;;;;-21.26;66.10;100092.33;1783616;80;21624;-62
2021/01/17 02:54:41;;;;;;;56.80;21.37;;;;;;;-21.28;66.18;100100.06;1749014;81;21251;-62
2021/01/17 02:57:12;;;;;;;63.13;21.97;;;;;;;-21.35;66.07;100092.40;1703586;82;21190;-61
2021/01/17 03:00:09;;;;;;;51.47;21.43;;;;;;;-21.39;66.26;100091.27;1783325;80;21622;-62
2021/01/17 03:02:45;;;;;;;61.07;21.70;;;;;;;-21.41;66.45;100084.41;1783338;80;21182;-62
2021/01/17 03:05:17;;;;;;;69.40;23.63;;;;;;;-21.42;66.54;100083.52;1783517;80;21103;-61
2021/01/17 03:07:57;;;;;;;44.87;18.53;;;;;;;-21.45;66.67;100084.50;1783246;80;21416;-61
2021/01/17 03:10:25;;;;;;;52.03;18.07;;;;;;;-21.45;66.83;100084.88;1783151;78;21225;-60
2021/01/17 03:12:53;;;;;;;45.00;18.63;;;;;;;-21.44;66.88;100087.50;1783113;80;21167;-61
2021/01/17 03:15:21;;;;;;;64.50;22.33;;;;;;;-21.41;66.86;100085.66;1783212;80;21175;-61
2021/01/17 03:17:49;;;;;;;62.33;23.27;;;;;;;-21.39;66.92;100081.27;1755027;80;21206;-62
2021/01/17 03:20:18;;;;;;;62.60;23.30;;;;;;;-21.39;66.91;100081.27;1783258;80;21218;-62
2021/01/17 03:22:46;;;;;;;52.33;22.47;;;;;;;-21.40;66.84;100077.03;1782658;80;21189;-62
2021/01/17 03:25:14;;;;;;;64.65;20.62;;;;;;;-21.42;66.85;100078.51;1782986;80;21158;-62
2021/01/17 03:27:43;;;;;;;63.53;22.07;;;;;;;-21.40;67.01;100082.02;1782768;80;21150;-63
2021/01/17 03:30:14;;;;;;;56.43;19.73;;;;;;;-21.38;67.10;100082.14;1756404;80;21226;-62
2021/01/17 03:32:42;;;;;;;61.77;21.13;;;;;;;-21.36;67.05;100078.16;1731195;82;21364;-63
2021/01/17 03:35:11;;;;;;;50.50;19.53;;;;;;;-21.37;67.03;100077.63;1733429;82;21319;-61
2021/01/17 03:37:39;;;;;;;51.02;20.52;;;;;;;-21.35;67.05;100069.02;1731354;82;21667;-62
2021/01/17 03:40:11;;;;;;;61.70;20.13;;;;;;;-21.35;67.12;100069.02;1737138;80;21222;-62
2021/01/17 03:42:39;;;;;;;45.95;17.52;;;;;;;-21.35;67.14;100074.02;1781260;80;26770;-62
2021/01/17 03:45:12;;;;;;;53.20;18.30;;;;;;;-21.35;67.19;100061.52;1781236;80;21377;-62
2021/01/17 03:47:39;;;;;;;;;;;;;;;-21.33;67.19;100065.03;1783853;80;21167;-62
2021/01/17 03:50:12;;;;;;;49.40;16.33;;;;;;;-21.33;67.22;100065.03;1781143;80;20270;-63
2021/01/17 03:52:40;;;;;;;50.87;19.40;;;;;;;-21.37;67.32;100061.03;1781540;80;21203;-61
2021/01/17 03:55:09;;;;;;;62.05;19.48;;;;;;;-21.40;67.16;100064.52;1781409;80;21198;-63
2021/01/17 03:57:37;;;;;;;66.93;19.37;;;;;;;-21.49;67.00;100061.22;1781219;80;21369;-62
2021/01/17 04:00:08;;;;;;;53.63;21.03;;;;;;;-21.58;67.03;100060.41;1781404;80;21673;-62
2021/01/17 04:02:42;;;;;;;60.47;22.07;;;;;;;-21.62;67.10;100062.12;1781023;80;21289;-62
2021/01/17 04:05:12;;;;;;;68.47;22.55;;;;;;;-21.64;67.19;100062.40;1781237;80;21171;-61
2021/01/17 04:07:41;;;;;;;61.70;22.25;;;;;;;-21.69;67.23;100059.84;1781318;80;22116;-62
2021/01/17 04:10:10;;;;;;;62.97;21.80;;;;;;;-21.70;67.31;100060.22;1781221;80;21724;-61
2021/01/17 04:12:38;;;;;;;;;;;;;;;-21.67;67.40;100055.86;1783925;80;21178;-63
2021/01/17 04:15:10;;;;;;;54.37;19.43;;;;;;;-21.66;67.50;100053.88;1780889;80;20286;-62
2021/01/17 04:17:38;;;;;;;59.35;21.90;;;;;;;-21.66;67.43;100058.88;1781128;80;21218;-63
2021/01/17 04:20:07;;;;;;;47.57;16.93;;;;;;;-21.70;67.31;100061.84;1780969;80;21195;-63
2021/01/17 04:22:38;;;;;;;57.07;20.60;;;;;;;-21.71;67.25;100065.07;1781028;80;21446;-61
2021/01/17 04:25:10;;;;;;;46.90;15.70;;;;;;;-21.73;67.29;100056.59;1781078;80;21234;-62
2021/01/17 04:27:38;;;;;;;50.80;19.90;;;;;;;-21.70;67.33;100064.34;1781322;80;21602;-62
2021/01/17 04:30:10;;;;;;;60.60;24.73;;;;;;;-21.68;67.41;100062.86;1781017;80;21207;-61
2021/01/17 04:32:43;;;;;;;;;;;;;;;-21.67;67.50;100063.36;1783770;80;21625;-63
2021/01/17 04:35:13;;;;;;;80.90;26.67;;;;;;;-21.68;67.44;100070.36;1781311;80;21382;-62
2021/01/17 04:37:42;;;;;;;69.80;25.60;;;;;;;-21.70;67.47;100070.22;1780793;80;21270;-61
2021/01/17 04:40:13;;;;;;;86.33;29.00;;;;;;;-21.70;67.45;100066.84;1779131;80;21650;-62
2021/01/17 04:42:41;;;;;;;74.20;28.70;;;;;;;-21.70;67.52;100069.34;1756730;81;21176;-63
2021/01/17 04:45:12;;;;;;;72.67;26.05;;;;;;;-21.70;67.61;100071.84;1756903;81;21188;-62
2021/01/17 04:47:40;;;;;;;76.60;24.75;;;;;;;-21.69;67.67;100072.34;1756943;81;22065;-62
2021/01/17 04:50:15;;;;;;;62.37;24.10;;;;;;;-21.70;67.62;100071.84;1716843;81;21184;-63
2021/01/17 04:52:54;;;;;;;62.60;23.93;;;;;;;-21.71;67.64;100072.56;1741902;80;21208;-62
2021/01/17 04:55:23;;;;;;;;;;;;;;;-21.71;67.70;100082.56;1779154;80;21226;-62
2021/01/17 04:57:58;;;;;;;58.17;19.87;;;;;;;-21.72;67.71;100084.58;1776652;80;20282;-62
2021/01/17 05:00:32;;;;;;;67.23;23.87;;;;;;;-21.78;67.66;100081.17;1776421;80;21614;-63
2021/01/17 05:06:29;;;;;;;88.10;26.60;;;;;;;-21.85;67.27;100090.99;1886174;76;22609;-62
2021/01/17 05:09:03;;;;;;;65.40;23.75;;;;;;;-21.99;67.15;100085.11;1824868;78;21166;-62
2021/01/17 05:11:39;;;;;;;58.53;22.33;;;;;;;-22.04;67.33;100076.33;1824906;78;22270;-62
2021/01/17 05:14:16;;;;;;;62.53;23.13;;;;;;;-22.03;67.42;100079.35;1824824;77;21402;-63
2021/01/17 05:16:46;;;;;;;70.73;23.30;;;;;;;-22.04;67.46;100077.20;1824787;77;21210;-63
2021/01/17 05:19:19;;;;;;;65.47;23.30;;;;;;;-22.06;67.36;100077.80;1824951;77;21151;-63
2021/01/17 05:21:49;;;;;;;63.87;22.03;;;;;;;-22.14;67.30;100067.14;1850460;77;21139;-62
2021/01/17 05:24:20;;;;;;;64.30;22.25;;;;;;;-22.18;67.32;100070.47;1850582;77;21514;-62
2021/01/17 05:26:54;;;;;;;65.37;20.90;;;;;;;-22.24;67.39;100066.72;1845075;77;21155;-63
2021/01/17 05:29:24;;;;;;;71.03;23.67;;;;;;;-22.22;67.47;100069.33;1824939;78;21171;-62
2021/01/17 05:32:02;;;;;;;73.80;24.70;;;;;;;-22.21;67.53;100071.48;1824757;78;21155;-61
2021/01/17 05:34:30;;;;;;;67.67;24.00;;;;;;;-22.21;67.55;100071.48;1810892;77;21664;-62
2021/01/17 05:37:12;;;;;;;65.63;25.27;;;;;;;-22.21;67.58;100072.73;1820095;77;22598;-63
2021/01/17 05:40:00;;;;;;;39.83;15.70;;;;;;;-22.18;67.67;100076.71;1818375;77;21158;-62
2021/01/17 05:42:39;;;;;;;48.67;18.03;;;;;;;-22.17;67.54;100080.95;1824577;77;21186;-62
2021/01/17 05:45:17;;;;;;;66.97;23.20;;;;;;;-22.18;67.53;100080.45;1835822;77;21381;-61
2021/01/17 05:47:58;;;;;;;62.30;22.50;;;;;;;-22.16;67.71;100075.23;1822965;78;21151;-61
2021/01/17 05:50:31;;;;;;;67.07;26.13;;;;;;;-22.15;67.68;100082.88;1823849;77;21372;-61
2021/01/17 05:53:04;;;;;;;77.67;24.47;;;;;;;-22.17;67.54;100083.11;1822670;78;21166;-61
2021/01/17 05:55:43;;;;;;;62.80;22.70;;;;;;;-22.17;67.38;100083.45;1824654;78;21181;-62
2021/01/17 05:58:31;;;;;;;51.77;17.17;;;;;;;-22.19;67.28;100085.83;1807519;77;21190;-62
2021/01/17 06:01:18;;;;;;;64.80;19.90;;;;;;;-22.11;67.33;100096.12;1866752;76;22053;-61
2021/01/17 06:03:54;;;;;;;61.30;20.57;;;;;;;-22.15;67.32;100094.45;1790459;79;21203;-60
2021/01/17 06:06:29;;;;;;;56.03;21.17;;;;;;;-22.13;67.35;100090.48;1796730;78;21356;-62
2021/01/17 06:08:58;;;;;;;51.37;16.67;;;;;;;-22.10;67.34;100093.28;1796003;79;21191;-61
2021/01/17 06:11:28;;;;;;;57.10;18.75;;;;;;;-22.05;67.28;100098.31;1796103;79;21158;-60
2021/01/17 06:13:59;;;;;;;59.80;19.45;;;;;;;-22.05;67.04;100104.56;1800420;78;21210;-63
2021/01/17 06:16:37;;;;;;;58.90;18.93;;;;;;;-22.07;66.87;100104.79;1795861;78;21143;-63
2021/01/17 06:19:34;;;;;;;54.03;19.13;;;;;;;-22.03;66.92;100106.45;1931584;73;22568;-61
2021/01/17 06:22:06;;;;;;;67.92;21.20;;;;;;;-22.04;66.98;100112.55;1913919;74;21152;-62
2021/01/17 06:24:39;;;;;;;57.50;20.07;;;;;;;-22.01;67.07;100102.85;1906953;74;21180;-63
2021/01/17 06:27:08;;;;;;;51.57;19.20;;;;;;;-21.94;67.07;100110.50;1932529;74;21580;-63
2021/01/17 06:29:42;;;;;;;52.93;18.93;;;;;;;-21.87;67.07;100111.21;1899592;74;21048;-66
2021/01/17 06:32:16;;;;;;;68.13;24.23;;;;;;;-21.77;67.06;100112.03;1897213;75;21345;-62
2021/01/17 06:34:50;;;;;;;81.77;27.27;;;;;;;-21.72;67.03;100109.56;1897309;75;22154;-63
2021/01/17 06:37:20;;;;;;;175.93;45.40;;;;;;;-21.63;67.07;100114.13;1818974;78;21368;-63
2021/01/17 06:39:55;;;;;;;159.90;45.37;;;;;;;-21.56;67.05;100115.18;1824762;77;21229;-62
2021/01/17 06:42:23;;;;;;;74.83;28.00;;;;;;;-21.49;67.01;100113.73;1827799;77;21150;-62
2021/01/17 06:44:53;;;;;;;76.87;25.70;;;;;;;-21.46;66.80;100116.52;1827737;78;21780;-62
2021/01/17 06:47:23;;;;;;;63.65;21.52;;;;;;;-21.38;66.76;100123.02;1832520;77;21151;-62
2021/01/17 06:49:53;;;;;;;64.93;22.77;;;;;;;-21.31;66.60;100124.44;1827769;78;21357;-62
2021/01/17 06:52:21;;;;;;;75.63;28.10;;;;;;;-21.21;66.76;100122.36;1827659;77;21755;-62
2021/01/17 06:54:52;;;;;;;73.77;25.37;;;;;;;-20.95;66.89;100129.28;1827494;78;21174;-62
2021/01/17 06:57:20;;;;;;;;;;;;;;;-20.57;67.25;100123.29;1830432;78;21179;-63
2021/01/17 06:59:50;;;;;;;89.80;28.95;;;;;;;-20.30;66.98;100118.45;1827922;76;20348;-62
2021/01/17 07:02:31;;;;;;;84.67;27.45;;;;;;;-20.12;66.59;100110.35;1836482;76;21350;-63
2021/01/17 07:05:27;;;;;;;72.30;26.43;;;;;;;-19.99;66.28;100114.73;1827871;78;21115;-62
2021/01/17 07:08:26;;;;;;;89.20;28.17;;;;;;;-19.88;66.01;100111.48;1836391;77;21711;-62
2021/01/17 07:11:23;;;;;;;107.20;29.65;;;;;;;-19.76;65.68;100113.73;1847804;77;21088;-62
2021/01/17 07:13:51;;;;;;;98.07;31.43;;;;;;;-19.70;65.55;100115.50;1827665;77;21287;-61
2021/01/17 07:16:36;;;;;;;121.75;36.55;;;;;;;-19.61;65.85;100115.34;1801445;77;22737;-63
2021/01/17 07:19:06;;;;;;;110.33;35.33;;;;;;;-19.53;66.03;100108.44;1837061;76;21183;-63
2021/01/17 07:21:37;;;;;;;104.43;31.50;;;;;;;-19.15;66.49;100106.50;1827892;77;21170;-63
2021/01/17 07:24:08;;;;;;;126.50;41.13;;;;;;;-18.46;67.77;100103.06;1845085;76;21167;-63
2021/01/17 07:27:01;;;;;;;117.80;40.03;;;;;;;-17.55;68.27;100103.17;1838097;77;21150;-62
2021/01/17 07:29:31;;;;;;;114.47;36.83;;;;;;;-16.61;67.56;100095.08;1832797;77;21369;-66
2021/01/17 07:32:01;;;;;;;117.37;39.77;;;;;;;-15.49;66.81;100087.09;1780517;77;21673;-64
2021/01/17 07:34:30;;;;;;;115.97;38.60;;;;;;;-14.46;66.71;100076.27;1834240;77;21187;-63
2021/01/17 07:37:00;;;;;;;106.23;35.17;;;;;;;-13.53;64.32;100068.28;1832528;77;21456;-63
2021/01/17 07:39:32;;;;;;;123.57;41.27;;;;;;;-12.69;64.10;100068.31;1833841;77;21183;-63
2021/01/17 07:42:05;;;;;;;134.27;47.20;;;;;;;-11.82;61.92;100068.21;1823252;77;22296;-62
2021/01/17 07:44:34;;;;;;;130.87;47.63;;;;;;;-11.00;60.95;100061.64;1815090;77;21170;-64
2021/01/17 07:47:05;;;;;;;145.97;52.10;;;;;;;-10.24;59.15;100056.64;1808161;77;21135;-64
2021/01/17 07:49:36;;;;;;;134.18;50.40;;;;;;;-9.53;57.36;100046.56;1837270;77;21182;-63
2021/01/17 07:52:08;;;;;;;135.17;51.27;;;;;;;-8.86;55.79;100042.45;1843126;77;21179;-62
2021/01/17 07:54:38;;;;;;;204.00;65.20;;;;;;;-8.20;53.53;100044.94;1811037;77;21551;-63
2021/01/17 07:57:08;;;;;;;221.10;72.87;;;;;;;-7.60;51.49;100054.73;1827030;77;21167;-65
2021/01/17 07:59:48;;;;;;;205.93;68.90;;;;;;;-7.39;49.29;100046.50;1820981;75;22524;-68
2021/01/17 08:02:25;;;;;;;161.67;54.40;;;;;;;-7.22;47.87;100041.11;1753975;80;21143;-66
2021/01/17 08:04:54;;;;;;;119.80;48.70;;;;;;;-6.91;48.69;100053.19;1756588;80;21334;-66
2021/01/17 08:07:32;;;;;;;119.13;47.63;;;;;;;-6.28;47.79;100043.59;1748876;80;21159;-68
2021/01/17 08:10:05;;;;;;;106.40;44.40;;;;;;;-5.82;44.49;100046.15;1758181;80;21242;-69
2021/01/17 08:12:37;;;;;;;114.75;44.08;;;;;;;-5.45;45.37;100043.28;1717518;81;21178;-66
2021/01/17 08:15:23;;;;;;;85.00;34.85;;;;;;;-5.04;42.63;100040.86;1747913;80;21181;-69
2021/01/17 08:17:50;;;;;;;79.60;36.33;;;;;;;-4.80;42.94;100042.30;1730960;79;22263;-67
2021/01/17 08:20:27;;;;;;;90.75;34.45;;;;;;;-4.45;42.89;100033.67;1769554;79;21195;-67
2021/01/17 08:23:05;;;;;;;76.05;32.15;;;;;;;-4.27;39.95;100042.63;1731186;80;21210;-68
2021/01/17 08:25:50;;;;;;;71.57;31.48;;;;;;;-4.12;41.59;100044.22;1763349;80;21170;-68
2021/01/17 08:28:29;;;;;;;70.20;29.27;;;;;;;-3.62;41.23;100039.22;1745111;81;21191;-66
2021/01/17 08:31:38;;;;;;;66.30;27.87;;;;;;;-3.22;38.06;100024.50;1819052;76;22765;-67
2021/01/17 08:34:11;;;;;;;57.98;26.50;;;;;;;-3.34;36.72;100020.83;1820523;77;21150;-68
2021/01/17 08:36:39;;;;;;;56.40;24.92;;;;;;;-3.38;38.45;100025.08;1750436;80;21372;-66
2021/01/17 08:39:09;;;;;;;54.95;24.40;;;;;;;-3.38;36.93;100018.64;1769191;80;21065;-66
2021/01/17 08:41:39;;;;;;;51.95;23.77;;;;;;;-3.40;36.65;100023.75;1755951;80;21516;-69
2021/01/17 08:44:08;;;;;;;44.25;22.50;;;;;;;-3.27;36.81;100019.66;1766396;80;22178;-69
2021/01/17 08:46:38;;;;;;;45.50;22.67;;;;;;;-3.25;36.95;100023.13;1766597;80;21219;-68
2021/01/17 08:49:08;;;;;;;44.30;21.93;;;;;;;-3.11;36.62;100014.77;1760850;80;21351;-68
2021/01/17 08:51:37;;;;;;;44.05;21.93;;;;;;;-2.68;37.55;100020.61;1757745;80;21228;-69
2021/01/17 08:54:25;;;;;;;46.92;22.90;;;;;;;-2.14;35.88;100011.87;1755466;80;21085;-68
2021/01/17 08:56:53;;;;;;;47.33;22.15;;;;;;;-2.05;34.69;100013.70;1759984;80;21188;-68
2021/01/17 08:59:33;;;;;;;49.38;23.92;;;;;;;-2.20;33.70;100019.55;1762486;80;21196;-70
2021/01/17 09:02:03;;;;;;;43.05;20.95;;;;;;;-2.39;34.34;100021.03;1751311;80;22342;-70
2021/01/17 09:04:32;;;;;;;42.03;19.65;;;;;;;-2.33;35.71;100023.67;1749811;80;21227;-68
2021/01/17 09:07:01;;;;;;;39.20;17.62;;;;;;;-1.98;35.25;100021.56;1768584;80;21631;-69
2021/01/17 09:09:29;;;;;;;40.58;18.10;;;;;;;-1.59;34.75;100016.80;1786808;79;21183;-66
2021/01/17 09:12:09;;;;;;;39.25;18.62;;;;;;;-1.21;34.15;100023.64;1782176;79;21211;-67
2021/01/17 09:14:38;;;;;;;40.15;19.40;;;;;;;-0.96;33.66;100014.81;1783320;79;21381;-68
2021/01/17 09:17:09;;;;;;;41.23;19.23;;;;;;;-0.78;32.86;100011.06;1776377;79;21234;-67
2021/01/17 09:19:37;;;;;;;38.25;18.00;;;;;;;-0.79;31.70;100017.08;1783127;79;21215;-66
2021/01/17 09:22:07;;;;;;;40.65;19.62;;;;;;;-1.13;32.02;100009.48;1779713;80;21207;-69
2021/01/17 09:24:37;;;;;;;40.05;19.23;;;;;;;-1.13;32.02;100009.48;1779794;79;21201;-69
2021/01/17 09:27:08;;;;;;;38.98;19.32;;;;;;;-0.94;33.40;100008.80;1747999;77;72656;-65
2021/01/17 09:29:41;;;;;;;40.45;20.10;;;;;;;-0.51;32.49;100010.36;1721009;81;21623;-65
2021/01/17 09:32:15;;;;;;;42.35;21.62;;;;;;;-0.35;31.46;100004.84;1698742;81;21467;-64
2021/01/17 09:34:46;;;;;;;42.05;20.40;;;;;;;-0.28;30.42;100007.89;1689654;84;21218;-64
2021/01/17 09:37:16;;;;;;;50.00;21.42;;;;;;;-0.44;30.03;100011.26;1693379;84;21210;-65
2021/01/17 09:39:46;;;;;;;41.90;20.25;;;;;;;-0.59;31.13;100008.60;1693507;84;22298;-64
2021/01/17 09:42:16;;;;;;;39.63;18.10;;;;;;;-0.32;31.82;99999.70;1690762;84;21195;-65
2021/01/17 09:44:54;;;;;;;39.95;18.32;;;;;;;-0.08;31.55;99995.48;1691663;84;21206;-65
2021/01/17 09:47:24;;;;;;;42.98;19.60;;;;;;;0.19;30.94;99987.81;1690078;84;22389;-63
2021/01/17 09:49:51;;;;;;;43.95;20.25;;;;;;;0.44;30.70;99994.77;1688821;84;21453;-64
2021/01/17 09:52:23;;;;;;;45.67;22.00;;;;;;;0.45;30.19;99979.67;1688590;84;21409;-64
2021/01/17 09:54:53;;;;;;;51.80;23.15;;;;;;;0.68;30.46;99984.88;1692514;84;21214;-65
2021/01/17 09:57:25;;;;;;;50.23;23.90;;;;;;;0.94;30.15;99981.84;1687350;84;21246;-65
2021/01/17 09:59:55;;;;;;;45.63;21.97;;;;;;;1.21;29.33;99977.52;1693015;83;21169;-65
2021/01/17 10:02:24;;;;;;;47.17;22.87;;;;;;;0.53;28.39;99976.23;1694863;83;21120;-66
2021/01/17 10:04:53;;;;;;;47.05;23.20;;;;;;;0.53;28.39;99976.23;1689013;81;21396;-73
2021/01/17 10:07:22;;;;;;;51.63;25.65;;;;;;;0.24;28.94;99981.79;1701527;82;21149;-74
2021/01/17 10:09:52;;;;;;;46.63;22.22;;;;;;;0.20;29.69;99984.34;1715365;81;21662;-75
2021/01/17 10:12:27;;;;;;;38.17;18.67;;;;;;;0.30;30.36;99985.27;1714111;81;21849;-73
2021/01/17 10:14:55;;;;;;;46.20;22.55;;;;;;;0.47;29.86;99980.10;1710712;82;21175;-72
2021/01/17 10:17:25;;;;;;;45.65;21.80;;;;;;;0.66;30.32;99971.05;1716431;81;21540;-71
2021/01/17 10:19:52;;;;;;;40.28;19.73;;;;;;;0.37;30.08;99975.78;1718168;83;21238;-73
2021/01/17 10:22:21;;;;;;;44.53;22.45;;;;;;;-0.10;30.64;99973.91;1713033;83;21175;-74
2021/01/17 10:24:48;;;;;;;47.05;22.27;;;;;;;-0.59;30.28;99973.69;1715735;81;21158;-75
2021/01/17 10:27:17;;;;;;;43.75;21.80;;;;;;;-0.82;31.31;99976.98;1725042;81;21207;-74
2021/01/17 10:29:45;;;;;;;44.60;21.27;;;;;;;-0.98;30.66;99972.13;1716532;82;22376;-73
2021/01/17 10:32:14;;;;;;;49.67;23.87;;;;;;;-1.37;31.22;99973.98;1722321;81;21217;-72
2021/01/17 10:34:47;;;;;;;52.62;22.37;;;;;;;-1.83;32.00;99970.95;1726429;81;21215;-74
2021/01/17 10:37:17;;;;;;;47.67;20.40;;;;;;;-2.00;32.55;99976.80;1720522;82;21633;-72
2021/01/17 10:39:47;;;;;;;51.98;22.90;;;;;;;-2.12;32.70;99971.47;1716605;81;21202;-76
2021/01/17 10:42:21;;;;;;;44.33;20.12;;;;;;;-1.96;33.35;99964.34;1716029;81;21607;-76
2021/01/17 10:45:06;;;;;;;45.00;20.65;;;;;;;-1.76;33.13;99965.00;1705514;82;21654;-72
2021/01/17 10:48:15;;;;;;;36.08;17.75;;;;;;;-2.02;32.63;99968.17;1713081;82;21159;-73
2021/01/17 10:50:55;;;;;;;39.95;18.85;;;;;;;-2.32;33.40;99972.11;1692529;82;22492;-72
2021/01/17 10:53:32;;;;;;;40.35;18.85;;;;;;;-3.07;33.39;99972.77;1721696;82;21172;-71
2021/01/17 10:56:02;;;;;;;33.05;15.28;;;;;;;-3.63;34.46;99965.42;1689014;82;21389;-72
2021/01/17 10:58:42;;;;;;;36.03;15.18;;;;;;;-4.12;34.96;99976.06;1715262;82;21772;-72
2021/01/17 11:01:11;;;;;;;39.40;17.05;;;;;;;-4.54;34.93;99982.49;1706820;82;21204;-74
2021/01/17 11:03:44;;;;;;;36.28;16.52;;;;;;;-4.80;36.33;99979.36;1710945;83;21195;-75
2021/01/17 11:06:21;;;;;;;33.78;16.10;;;;;;;-4.51;37.27;99976.13;1698018;83;21174;-80
2021/01/17 11:08:55;;;;;;;34.27;15.23;;;;;;;-3.91;36.68;99972.17;1704355;84;21395;-79
2021/01/17 11:11:27;;;;;;;41.23;17.62;;;;;;;-3.50;35.58;99966.91;1702576;83;21205;-75
2021/01/17 11:14:03;;;;;;;36.30;15.60;;;;;;;-3.19;34.41;99963.14;1687311;84;21611;-74
2021/01/17 11:16:43;;;;;;;35.48;16.12;;;;;;;-2.99;35.41;99962.14;1678553;84;21208;-73
2021/01/17 11:19:12;;;;;;;28.05;12.93;;;;;;;-2.45;34.12;99955.17;1698493;83;21181;-75
2021/01/17 11:21:42;;;;;;;38.95;18.25;;;;;;;-1.99;35.13;99956.58;1670556;84;21341;-71
2021/01/17 11:24:11;;;;;;;38.58;16.35;;;;;;;-1.43;32.22;99953.25;1700523;84;21191;-73
2021/01/17 11:26:42;;;;;;;36.77;16.82;;;;;;;-1.30;30.92;99953.80;1697171;84;21204;-72
2021/01/17 11:29:16;;;;;;;31.75;15.18;;;;;;;-1.56;31.12;99960.90;1694848;82;21177;-72
2021/01/17 11:31:45;;;;;;;24.65;12.45;;;;;;;-1.60;31.93;99952.67;1695229;84;21189;-74
2021/01/17 11:34:15;;;;;;;30.77;13.68;;;;;;;-1.30;31.65;99942.17;1702610;84;21219;-73
2021/01/17 11:36:44;;;;;;;30.68;12.40;;;;;;;-1.20;31.52;99934.91;1684623;84;21250;-73